Decoded Metar for LCPH (PAPHOS in CYPRUS) (IATA:PFO) | Meteo·Mobile Aviation Weather
aviador You're here:

LCPH Decoded Metar

PAPHOS in CYPRUS
Report Time2020-01-26 15:30:00
UTC Time2020-01-26 15:57:44
Flight Rules vfr VFR
Wind320° at 06 kt
W.Decomp.*RWY 29: 5.4 kt HW 2.6 kt RCW
Visibility9999 m
Phenomena:N/A
Clouds:Few 025 Hf
Expected CloudBase > 2,400 ft AGL from Temp-Dew spread
CeilingNone
Temp12°C (ISA -3)
Dew Point06°C (67% RH)
AAT8.9°C
QNH1027 hPa
Density Alt-669 ft
Elevation26 ft
Report Wrong Elevation
Raw Report
METAR LCPH 261530Z 32006KT 9999 FEW025 12/06 Q1027=

Extra information for LCPH:More info

Metar Taf Metar & Taf Last 4 Metars F.Rules Stats Wind Profile Meteogram Temp Stats Airport Information Weather charts Add Link Nearby VenuesMetar ALERT Operation Metar Decoded Social comments